createdAt,value
2018-08-27T00:00:19.463Z,62.45
2018-08-27T00:00:45.642Z,62.52
2018-08-27T00:01:11.781Z,62.55
2018-08-27T00:01:37.906Z,61.98
2018-08-27T00:02:04.041Z,62.45
2018-08-27T00:02:30.176Z,62.42
2018-08-27T00:02:56.338Z,62.04
2018-08-27T00:03:22.493Z,61.18
2018-08-27T00:03:48.628Z,61.18
2018-08-27T00:04:14.787Z,61.18
2018-08-27T00:04:40.942Z,61.66
2018-08-27T00:05:07.140Z,61.27
2018-08-27T00:05:33.298Z,60.99
2018-08-27T00:05:59.431Z,60.89
2018-08-27T00:06:25.553Z,61.27
2018-08-27T00:06:51.692Z,62.23
2018-08-27T00:07:17.831Z,61.94
2018-08-27T00:07:44.039Z,62.04
2018-08-27T00:08:10.178Z,62.33
2018-08-27T00:08:36.308Z,61.46
2018-08-27T00:09:02.472Z,61.08
2018-08-27T00:09:28.629Z,60.79
2018-08-27T00:09:54.787Z,60.99
2018-08-27T00:10:20.913Z,61.08
2018-08-27T00:10:47.049Z,61.18
2018-08-27T00:11:13.177Z,60.7
2018-08-27T00:11:39.311Z,60.99
2018-08-27T00:12:05.465Z,61.18
2018-08-27T00:12:31.597Z,60.79
2018-08-27T00:12:57.756Z,61.08
2018-08-27T00:13:23.909Z,60.99
2018-08-27T00:13:50.070Z,61.08
2018-08-27T00:14:16.201Z,60.99
2018-08-27T00:14:42.339Z,60.99
2018-08-27T00:15:08.473Z,61.08
2018-08-27T00:15:34.611Z,60.7
2018-08-27T00:16:00.743Z,60.99
2018-08-27T00:16:26.883Z,60.92
2018-08-27T00:16:53.021Z,60.79
2018-08-27T00:17:19.168Z,60.72
2018-08-27T00:17:45.302Z,61.08
2018-08-27T00:18:11.436Z,60.82
2018-08-27T00:18:37.590Z,60.92
2018-08-27T00:19:03.725Z,61.02
2018-08-27T00:19:29.856Z,61.02
2018-08-27T00:19:56.020Z,61.02
2018-08-27T00:20:22.173Z,60.72
2018-08-27T00:20:48.305Z,60.53
2018-08-27T00:21:14.437Z,60.63
2018-08-27T00:21:40.572Z,60.63
2018-08-27T00:22:06.722Z,60.53
2018-08-27T00:22:32.879Z,60.53
2018-08-27T00:22:59.021Z,60.44
2018-08-27T00:23:25.177Z,60.25
2018-08-27T00:23:51.312Z,60.25
2018-08-27T00:24:17.445Z,59.86
2018-08-27T00:24:43.598Z,59.86
2018-08-27T00:25:09.739Z,60.05
2018-08-27T00:25:35.932Z,59.77
2018-08-27T00:26:02.067Z,59.48
2018-08-27T00:26:28.197Z,59.48
2018-08-27T00:26:54.339Z,59.19
2018-08-27T00:27:20.494Z,59.29
2018-08-27T00:27:46.628Z,59.38
2018-08-27T00:28:12.762Z,59.19
2018-08-27T00:28:38.905Z,59.77
2018-08-27T00:29:05.033Z,59.48
2018-08-27T00:29:31.193Z,59.48
2018-08-27T00:29:57.346Z,59.38
2018-08-27T00:30:23.503Z,59.48
2018-08-27T00:30:49.629Z,59.77
2018-08-27T00:31:15.767Z,59.29
2018-08-27T00:31:41.899Z,59.67
2018-08-27T00:32:08.035Z,59.29
2018-08-27T00:32:34.169Z,59.38
2018-08-27T00:33:00.301Z,59.19
2018-08-27T00:33:26.437Z,59.67
2018-08-27T00:33:52.570Z,59.19
2018-08-27T00:34:18.728Z,59.38
2018-08-27T00:34:44.876Z,59.19
2018-08-27T00:35:11.009Z,59.48
2018-08-27T00:35:40.174Z,59.29
2018-08-27T00:36:06.306Z,59.19
2018-08-27T00:36:32.442Z,59.38
2018-08-27T00:36:58.581Z,59.29
2018-08-27T00:37:24.718Z,59.19
2018-08-27T00:37:50.858Z,59.09
2018-08-27T00:38:16.990Z,59.38
2018-08-27T00:38:43.124Z,59.86
2018-08-27T00:39:09.253Z,59.48
2018-08-27T00:39:35.386Z,59.77
2018-08-27T00:40:01.525Z,59.86
2018-08-27T00:40:27.678Z,59.48
2018-08-27T00:40:53.876Z,59.67
2018-08-27T00:41:20.013Z,59.86
2018-08-27T00:41:46.150Z,59.77
2018-08-27T00:42:12.282Z,60.35
2018-08-27T00:42:38.420Z,60.35
2018-08-27T00:43:04.554Z,60.25
2018-08-27T00:43:30.697Z,60.35
2018-08-27T00:43:56.875Z,60.53
2018-08-27T00:44:23.002Z,60.25
2018-08-27T00:44:49.188Z,60.35
2018-08-27T00:45:15.322Z,60.5
2018-08-27T00:45:41.452Z,61.02
2018-08-27T00:46:07.604Z,61.3
2018-08-27T00:46:33.736Z,60.82
2018-08-27T00:46:59.867Z,61.21
2018-08-27T00:47:25.992Z,61.11
2018-08-27T00:47:52.128Z,61.4
2018-08-27T00:48:18.279Z,62.36
2018-08-27T00:48:44.437Z,62.65
2018-08-27T00:49:10.584Z,62.16
2018-08-27T00:49:36.699Z,61.98
2018-08-27T00:50:02.831Z,62.07
2018-08-27T00:50:28.963Z,62.26
2018-08-27T00:50:55.094Z,62.36
2018-08-27T00:51:21.228Z,61.78
2018-08-27T00:51:47.360Z,61.37
2018-08-27T00:52:13.494Z,61.85
2018-08-27T00:52:39.627Z,62.23
2018-08-27T00:53:05.786Z,61.78
2018-08-27T00:53:31.925Z,61.69
2018-08-27T00:53:58.082Z,61.4
2018-08-27T00:54:24.205Z,61.21
2018-08-27T00:54:50.340Z,61.02
2018-08-27T00:55:16.496Z,61.3
2018-08-27T00:55:42.627Z,60.92
2018-08-27T00:56:08.777Z,61.21
2018-08-27T00:56:34.938Z,61.02
2018-08-27T00:57:01.095Z,60.82
2018-08-27T00:57:27.234Z,60.82
2018-08-27T00:57:53.367Z,60.89
2018-08-27T00:58:19.498Z,61.37
2018-08-27T00:58:45.647Z,61.21
2018-08-27T00:59:11.783Z,60.89
2018-08-27T00:59:37.903Z,60.92
2018-08-27T01:00:04.038Z,61.21
2018-08-27T01:00:30.176Z,61.49
2018-08-27T01:00:56.339Z,61.18
2018-08-27T01:01:22.469Z,61.3
2018-08-27T01:01:48.602Z,61.4
2018-08-27T01:02:14.738Z,61.3
2018-08-27T01:02:40.871Z,61.37
2018-08-27T01:03:07.023Z,61.66
2018-08-27T01:03:33.161Z,62.23
2018-08-27T01:03:59.292Z,62.13
2018-08-27T01:04:25.425Z,62.36
2018-08-27T01:04:51.581Z,62.04
2018-08-27T01:05:17.713Z,61.85
2018-08-27T01:05:43.844Z,62.16
2018-08-27T01:06:09.976Z,62.33
2018-08-27T01:06:36.122Z,62.07
2018-08-27T01:07:02.252Z,61.88
2018-08-27T01:07:28.416Z,61.75
2018-08-27T01:07:54.576Z,61.88
2018-08-27T01:08:20.711Z,62.07
2018-08-27T01:08:46.844Z,62.16
2018-08-27T01:09:13.005Z,62.36
2018-08-27T01:09:39.136Z,62.36
2018-08-27T01:10:05.271Z,61.98
2018-08-27T01:10:31.413Z,61.85
2018-08-27T01:10:57.572Z,61.88
2018-08-27T01:11:23.702Z,62.07
2018-08-27T01:11:49.841Z,62.26
2018-08-27T01:12:15.976Z,62.07
2018-08-27T01:12:42.124Z,61.88
2018-08-27T01:13:08.258Z,61.75
2018-08-27T01:13:34.394Z,61.88
2018-08-27T01:14:00.524Z,62.36
2018-08-27T01:14:26.667Z,61.88
2018-08-27T01:14:52.800Z,62.26
2018-08-27T01:15:18.932Z,62.07
2018-08-27T01:15:45.080Z,61.88
2018-08-27T01:16:11.204Z,62.07
2018-08-27T01:16:37.339Z,62.16
2018-08-27T01:17:03.495Z,62.36
2018-08-27T01:17:29.654Z,62.36
2018-08-27T01:17:55.787Z,61.98
2018-08-27T01:18:21.920Z,62.16
2018-08-27T01:18:48.044Z,61.88
2018-08-27T01:19:14.207Z,62.36
2018-08-27T01:19:40.341Z,61.88
2018-08-27T01:20:06.478Z,62.26
2018-08-27T01:20:32.608Z,62.16
2018-08-27T01:20:58.771Z,61.78
2018-08-27T01:21:24.901Z,62.36
2018-08-27T01:21:51.035Z,62.07
2018-08-27T01:22:17.177Z,61.88
2018-08-27T01:22:43.339Z,61.98
2018-08-27T01:23:09.490Z,62.26
2018-08-27T01:23:35.631Z,62.26
2018-08-27T01:24:01.765Z,61.78
2018-08-27T01:24:27.896Z,62.26
2018-08-27T01:24:54.033Z,62.26
2018-08-27T01:25:20.176Z,61.98
2018-08-27T01:25:46.329Z,62.36
2018-08-27T01:26:12.460Z,62.07
2018-08-27T01:26:38.613Z,61.98
2018-08-27T01:27:04.761Z,62.07
2018-08-27T01:27:30.894Z,62.07
2018-08-27T01:27:57.052Z,61.88
2018-08-27T01:28:23.184Z,61.49
2018-08-27T01:28:49.316Z,62.07
2018-08-27T01:29:15.459Z,62.07
2018-08-27T01:29:41.581Z,61.98
2018-08-27T01:30:07.716Z,62.26
2018-08-27T01:30:33.858Z,62.07
2018-08-27T01:30:59.992Z,62.26
2018-08-27T01:31:26.152Z,62.16
2018-08-27T01:31:52.302Z,62.26
2018-08-27T01:32:18.465Z,62.26
2018-08-27T01:32:44.614Z,62.16
2018-08-27T01:33:10.749Z,62.36
2018-08-27T01:33:36.879Z,62.26
2018-08-27T01:34:03.015Z,62.45
2018-08-27T01:34:29.145Z,62.16
2018-08-27T01:34:55.332Z,62.07
2018-08-27T01:35:21.492Z,62.26
2018-08-27T01:35:47.621Z,62.26
2018-08-27T01:36:13.749Z,62.07
2018-08-27T01:36:39.889Z,62.26
2018-08-27T01:37:06.029Z,62.16
2018-08-27T01:37:32.176Z,62.55
2018-08-27T01:37:58.309Z,62.65
2018-08-27T01:38:24.448Z,62.65
2018-08-27T01:38:50.579Z,62.36
2018-08-27T01:39:16.716Z,62.74
2018-08-27T01:39:42.842Z,62.65
2018-08-27T01:40:08.979Z,62.55
2018-08-27T01:40:35.108Z,62.55
2018-08-27T01:41:01.245Z,61.98
2018-08-27T01:41:27.384Z,62.45
2018-08-27T01:41:53.538Z,62.45
2018-08-27T01:42:19.669Z,62.16
2018-08-27T01:42:45.801Z,62.07
2018-08-27T01:43:11.939Z,62.26
2018-08-27T01:43:38.071Z,62.26
2018-08-27T01:44:04.197Z,62.26
2018-08-27T01:44:30.339Z,62.07
2018-08-27T01:44:56.474Z,62.16
2018-08-27T01:45:22.606Z,62.55
2018-08-27T01:45:48.748Z,62.36
2018-08-27T01:46:14.869Z,62.45
2018-08-27T01:46:41.003Z,62.74
2018-08-27T01:47:07.132Z,62.65
2018-08-27T01:47:33.267Z,62.26
2018-08-27T01:47:59.395Z,62.65
2018-08-27T01:48:25.557Z,62.74
2018-08-27T01:48:51.687Z,62.84
2018-08-27T01:49:17.823Z,62.55
2018-08-27T01:49:43.952Z,62.26
2018-08-27T01:50:10.077Z,62.55
2018-08-27T01:50:36.210Z,62.65
2018-08-27T01:51:02.353Z,62.55
2018-08-27T01:51:28.478Z,62.45
2018-08-27T01:51:54.632Z,62.74
2018-08-27T01:52:20.767Z,62.45
2018-08-27T01:52:46.899Z,62.65
2018-08-27T01:53:13.033Z,62.07
2018-08-27T01:53:39.167Z,62.36
2018-08-27T01:54:05.299Z,62.74
2018-08-27T01:54:31.429Z,62.16
2018-08-27T01:54:57.566Z,62.45
2018-08-27T01:55:23.697Z,62.26
2018-08-27T01:55:49.837Z,62.45
2018-08-27T01:56:15.972Z,62.65
2018-08-27T01:56:42.112Z,62.74
2018-08-27T01:57:08.240Z,62.84
2018-08-27T01:57:34.375Z,63.03
2018-08-27T01:58:00.505Z,62.65
2018-08-27T01:58:26.637Z,63.03
2018-08-27T01:58:52.775Z,63.12
2018-08-27T01:59:18.909Z,62.84
2018-08-27T01:59:45.045Z,62.84
2018-08-27T02:00:11.200Z,62.74
2018-08-27T02:00:37.330Z,63.42
2018-08-27T02:01:03.464Z,63.12
2018-08-27T02:01:29.589Z,63.32
2018-08-27T02:01:55.753Z,63.03
2018-08-27T02:02:21.903Z,62.93
2018-08-27T02:02:48.040Z,63.42
2018-08-27T02:03:14.172Z,62.74
2018-08-27T02:03:40.302Z,63.03
2018-08-27T02:04:06.441Z,63.12
2018-08-27T02:04:32.566Z,63.22
2018-08-27T02:04:58.706Z,63.6
2018-08-27T02:05:24.863Z,62.93
2018-08-27T02:05:50.993Z,62.84
2018-08-27T02:06:17.149Z,63.03
2018-08-27T02:06:43.314Z,63.12
2018-08-27T02:07:09.444Z,62.93
2018-08-27T02:07:35.607Z,63.32
2018-08-27T02:08:01.736Z,63.03
2018-08-27T02:08:27.868Z,62.93
2018-08-27T02:08:54.006Z,62.84
2018-08-27T02:09:20.140Z,63.32
2018-08-27T02:09:46.295Z,63.42
2018-08-27T02:10:12.423Z,63.12
2018-08-27T02:10:38.579Z,63.7
2018-08-27T02:11:04.719Z,63.51
2018-08-27T02:11:30.846Z,64.09
2018-08-27T02:11:56.979Z,63.7
2018-08-27T02:12:23.115Z,63.89
2018-08-27T02:12:49.240Z,63.99
2018-08-27T02:13:15.378Z,64.28
2018-08-27T02:13:41.532Z,64.37
2018-08-27T02:14:07.684Z,64.37
2018-08-27T02:14:33.839Z,64.76
2018-08-27T02:14:59.977Z,64.95
2018-08-27T02:15:26.127Z,64.66
2018-08-27T02:15:52.302Z,65.14
2018-08-27T02:16:18.434Z,64.85
2018-08-27T02:16:44.569Z,64.76
2018-08-27T02:17:10.713Z,65.14
2018-08-27T02:17:36.861Z,65.23
2018-08-27T02:18:02.993Z,65.43
2018-08-27T02:18:29.120Z,65.72
2018-08-27T02:18:55.260Z,65.72
2018-08-27T02:19:21.410Z,65.52
2018-08-27T02:19:47.542Z,65.62
2018-08-27T02:20:13.678Z,65.62
2018-08-27T02:20:39.813Z,66.29
2018-08-27T02:21:06.049Z,66.19
2018-08-27T02:21:32.080Z,66.29
2018-08-27T02:21:58.215Z,65.81
2018-08-27T02:22:24.351Z,65.72
2018-08-27T02:22:50.482Z,66
2018-08-27T02:23:16.614Z,65.81
2018-08-27T02:23:42.754Z,65.91
2018-08-27T02:24:08.893Z,65.91
2018-08-27T02:24:35.057Z,65.81
2018-08-27T02:25:01.195Z,65.72
2018-08-27T02:25:27.317Z,65.72
2018-08-27T02:25:53.471Z,65.91
2018-08-27T02:26:19.584Z,65.72
2018-08-27T02:26:45.738Z,65.72
2018-08-27T02:27:11.872Z,65.91
2018-08-27T02:27:38.003Z,66.19
2018-08-27T02:28:04.138Z,65.91
2018-08-27T02:28:30.274Z,65.62
2018-08-27T02:28:56.403Z,66.19
2018-08-27T02:29:22.537Z,65.91
2018-08-27T02:29:48.678Z,65.91
2018-08-27T02:30:14.860Z,65.72
2018-08-27T02:30:41.028Z,65.81
2018-08-27T02:31:07.208Z,65.91
2018-08-27T02:31:33.368Z,66.58
2018-08-27T02:31:59.500Z,65.91
2018-08-27T02:32:25.697Z,66.49
2018-08-27T02:32:51.812Z,66.49
2018-08-27T02:33:17.935Z,66.77
2018-08-27T02:33:44.096Z,66.49
2018-08-27T02:34:10.232Z,66.49
2018-08-27T02:34:36.362Z,66.1
2018-08-27T02:35:02.628Z,66.67
2018-08-27T02:35:28.717Z,66.77
2018-08-27T02:35:54.874Z,66.58
2018-08-27T02:36:21.004Z,66.67
2018-08-27T02:36:47.143Z,66.39
2018-08-27T02:37:13.290Z,66.49
2018-08-27T02:37:39.424Z,67.06
2018-08-27T02:38:05.581Z,66.86
2018-08-27T02:38:31.722Z,67.44
2018-08-27T02:38:57.855Z,66.96
2018-08-27T02:39:23.993Z,66.77
2018-08-27T02:39:50.205Z,67.25
2018-08-27T02:40:16.337Z,66.86
2018-08-27T02:40:42.462Z,67.54
2018-08-27T02:41:08.596Z,67.41
2018-08-27T02:41:34.753Z,67.54
2018-08-27T02:42:00.917Z,67.54
2018-08-27T02:42:27.060Z,68.12
2018-08-27T02:42:53.191Z,68.12
2018-08-27T02:43:19.324Z,68.12
2018-08-27T02:43:45.484Z,68.02
2018-08-27T02:44:11.650Z,68.12
2018-08-27T02:44:37.832Z,68.02
2018-08-27T02:45:03.965Z,67.83
2018-08-27T02:45:30.100Z,67.92
2018-08-27T02:45:56.241Z,68.12
2018-08-27T02:46:22.388Z,67.83
2018-08-27T02:46:48.526Z,68.21
2018-08-27T02:47:14.679Z,68.02
2018-08-27T02:47:40.837Z,68.21
2018-08-27T02:48:06.998Z,67.92
2018-08-27T02:48:33.137Z,67.44
2018-08-27T02:48:59.313Z,68.02
2018-08-27T02:49:25.493Z,68.3
2018-08-27T02:49:51.616Z,67.83
2018-08-27T02:50:17.777Z,68.4
2018-08-27T02:50:43.929Z,68.56
2018-08-27T02:51:10.063Z,69.07
2018-08-27T02:51:36.193Z,69.36
2018-08-27T02:52:02.353Z,69.26
2018-08-27T02:52:28.498Z,69.26
2018-08-27T02:52:54.634Z,69.42
2018-08-27T02:53:20.764Z,69.62
2018-08-27T02:53:46.939Z,70.57
2018-08-27T02:54:13.073Z,71.15
2018-08-27T02:54:39.209Z,71.53
2018-08-27T02:55:05.374Z,72.3
2018-08-27T02:55:31.503Z,71.53
2018-08-27T02:55:57.660Z,72.3
2018-08-27T02:56:23.806Z,72.3
2018-08-27T02:56:49.949Z,72.2
2018-08-27T02:57:16.082Z,72.11
2018-08-27T02:57:42.234Z,72.78
2018-08-27T02:58:08.366Z,73.74
2018-08-27T02:58:34.520Z,73.07
2018-08-27T02:59:00.650Z,74.12
2018-08-27T02:59:26.783Z,74.51
2018-08-27T02:59:52.939Z,74.51
2018-08-27T03:00:19.073Z,74.12
2018-08-27T03:00:45.232Z,75.18
2018-08-27T03:01:11.374Z,75.18
2018-08-27T03:01:37.529Z,75.18
2018-08-27T03:02:03.687Z,75.18
2018-08-27T03:02:29.817Z,75.95
2018-08-27T03:02:55.976Z,76.23
2018-08-27T03:03:22.156Z,76.67
2018-08-27T03:03:48.322Z,77.44
2018-08-27T03:04:14.454Z,77.44
2018-08-27T03:04:40.608Z,77.73
2018-08-27T03:05:06.748Z,77.92
2018-08-27T03:05:32.905Z,78.97
2018-08-27T03:05:59.052Z,78.88
2018-08-27T03:06:25.185Z,80.22
2018-08-27T03:06:51.350Z,80.51
2018-08-27T03:07:17.521Z,80.79
2018-08-27T03:07:43.692Z,81.75
2018-08-27T03:08:09.825Z,81.18
2018-08-27T03:08:35.963Z,81.27
2018-08-27T03:09:02.098Z,81.27
2018-08-27T03:09:28.222Z,80.6
2018-08-27T03:09:54.354Z,81.18
2018-08-27T03:10:20.494Z,80.6
2018-08-27T03:10:46.621Z,81.56
2018-08-27T03:11:12.782Z,81.75
2018-08-27T03:11:38.938Z,81.85
2018-08-27T03:12:05.067Z,81.66
2018-08-27T03:12:31.204Z,81.66
2018-08-27T03:12:57.339Z,81.85
2018-08-27T03:13:23.490Z,82.14
2018-08-27T03:13:49.643Z,81.75
2018-08-27T03:14:15.803Z,82.52
2018-08-27T03:14:41.936Z,82.62
2018-08-27T03:15:08.090Z,82.48
2018-08-27T03:15:34.224Z,82.29
2018-08-27T03:16:00.388Z,82.42
2018-08-27T03:16:26.542Z,82.38
2018-08-27T03:16:52.654Z,82.14
2018-08-27T03:17:18.780Z,82.67
2018-08-27T03:17:44.921Z,82.52
2018-08-27T03:18:11.056Z,82.42
2018-08-27T03:18:37.226Z,82.81
2018-08-27T03:19:03.359Z,82.57
2018-08-27T03:19:29.497Z,82.38
2018-08-27T03:19:55.620Z,82.52
2018-08-27T03:20:21.756Z,82.71
2018-08-27T03:20:47.889Z,82.29
2018-08-27T03:21:14.045Z,82.42
2018-08-27T03:21:40.196Z,82.52
2018-08-27T03:22:06.350Z,82.29
2018-08-27T03:22:32.508Z,82.19
2018-08-27T03:22:58.641Z,82.29
2018-08-27T03:23:24.775Z,82.29
2018-08-27T03:23:50.908Z,82.29
2018-08-27T03:24:17.038Z,82.38
2018-08-27T03:24:43.167Z,82.29
2018-08-27T03:25:09.386Z,81.43
2018-08-27T03:25:35.505Z,81.13
2018-08-27T03:26:01.641Z,81.71
2018-08-27T03:26:27.796Z,82.19
2018-08-27T03:26:53.929Z,82.38
2018-08-27T03:27:20.064Z,82.57
2018-08-27T03:27:46.201Z,82.29
2018-08-27T03:28:12.333Z,82.48
2018-08-27T03:28:38.528Z,82.38
2018-08-27T03:29:04.662Z,82.57
2018-08-27T03:29:30.834Z,82.52
2018-08-27T03:29:56.930Z,82.48
2018-08-27T03:30:23.079Z,82
2018-08-27T03:30:49.238Z,81.13
2018-08-27T03:31:15.391Z,81.52
2018-08-27T03:31:41.555Z,82
2018-08-27T03:32:07.749Z,81.71
2018-08-27T03:32:33.905Z,81.52
2018-08-27T03:33:00.066Z,81.23
2018-08-27T03:33:26.197Z,81.71
2018-08-27T03:33:52.352Z,82.67
2018-08-27T03:34:18.501Z,81.62
2018-08-27T03:34:44.641Z,81.62
2018-08-27T03:35:10.770Z,81.62
2018-08-27T03:35:36.935Z,81.9
2018-08-27T03:36:03.061Z,81.52
2018-08-27T03:36:29.223Z,81.33
2018-08-27T03:36:55.355Z,82.09
2018-08-27T03:37:21.507Z,81.71
2018-08-27T03:37:47.663Z,81.27
2018-08-27T03:38:13.805Z,81.62
2018-08-27T03:38:39.938Z,81.62
2018-08-27T03:39:06.080Z,81.33
2018-08-27T03:39:32.207Z,81.33
2018-08-27T03:39:58.341Z,81.71
2018-08-27T03:40:24.529Z,81.71
2018-08-27T03:40:50.751Z,81.52
2018-08-27T03:41:16.799Z,81.75
2018-08-27T03:41:42.954Z,81.62
2018-08-27T03:42:09.088Z,81.52
2018-08-27T03:42:35.217Z,81.33
2018-08-27T03:43:01.376Z,81.27
2018-08-27T03:43:27.536Z,81.81
2018-08-27T03:43:53.663Z,81.52
2018-08-27T03:44:19.816Z,81.62
2018-08-27T03:44:45.977Z,81.62
2018-08-27T03:45:12.129Z,81.43
2018-08-27T03:45:38.261Z,81.62
2018-08-27T03:46:04.413Z,81.13
2018-08-27T03:46:30.567Z,81.71
2018-08-27T03:46:56.703Z,81.75
2018-08-27T03:47:22.838Z,81.23
2018-08-27T03:47:48.976Z,81.43
2018-08-27T03:48:15.129Z,81.46
2018-08-27T03:48:41.282Z,81.43
2018-08-27T03:49:07.395Z,81.13
2018-08-27T03:49:33.549Z,81.81
2018-08-27T03:49:59.690Z,81.52
2018-08-27T03:50:25.837Z,81.71
2018-08-27T03:50:51.976Z,81.52
2018-08-27T03:51:18.124Z,81.71
2018-08-27T03:51:44.259Z,81.43
2018-08-27T03:52:10.389Z,81.62
2018-08-27T03:52:36.525Z,81.43
2018-08-27T03:53:02.679Z,81.52
2018-08-27T03:53:28.836Z,81.13
2018-08-27T03:53:54.968Z,81.13
2018-08-27T03:54:21.124Z,81.81
2018-08-27T03:54:47.282Z,81.71
2018-08-27T03:55:13.432Z,81.56
2018-08-27T03:55:39.558Z,81.71
2018-08-27T03:56:05.693Z,82
2018-08-27T03:56:31.921Z,82
2018-08-27T03:56:58.050Z,81.33
2018-08-27T03:57:24.185Z,81.13
2018-08-27T03:57:50.327Z,81.62
2018-08-27T03:58:16.508Z,81.43
2018-08-27T03:58:42.667Z,81.52
2018-08-27T03:59:08.798Z,80.94
2018-08-27T03:59:34.935Z,81.52
2018-08-27T04:00:01.077Z,81.62
2018-08-27T04:00:27.206Z,82
2018-08-27T04:00:53.359Z,81.43
2018-08-27T04:01:19.511Z,81.23
2018-08-27T04:01:45.672Z,81.23
2018-08-27T04:02:11.825Z,81.52
2018-08-27T04:02:37.980Z,81.33
2018-08-27T04:03:04.111Z,81.52
2018-08-27T04:03:30.251Z,81.52
2018-08-27T04:03:56.433Z,81.23
2018-08-27T04:04:22.563Z,81.71
2018-08-27T04:04:48.708Z,81.52
2018-08-27T04:05:14.905Z,81.43
2018-08-27T04:05:40.978Z,81.43
2018-08-27T04:06:07.180Z,81.33
2018-08-27T04:06:33.310Z,81.52
2018-08-27T04:06:59.438Z,81.52
2018-08-27T04:07:25.622Z,81.23
2018-08-27T04:07:51.759Z,81.52
2018-08-27T04:08:17.891Z,81.43
2018-08-27T04:08:44.054Z,81.43
2018-08-27T04:09:10.185Z,81.33
2018-08-27T04:09:36.309Z,81.52
2018-08-27T04:10:02.464Z,81.33
2018-08-27T04:10:28.624Z,81.62
2018-08-27T04:10:54.756Z,81.43
2018-08-27T04:11:20.910Z,81.43
2018-08-27T04:11:47.072Z,81.71
2018-08-27T04:12:13.208Z,82
2018-08-27T04:12:39.370Z,81.52
2018-08-27T04:13:05.521Z,81.71
2018-08-27T04:13:31.675Z,82.38
2018-08-27T04:13:57.877Z,81.52
2018-08-27T04:14:24.035Z,81.27
2018-08-27T04:14:50.170Z,81.33
2018-08-27T04:15:16.348Z,81.33
2018-08-27T04:15:42.503Z,81.9
2018-08-27T04:16:08.638Z,81.33
2018-08-27T04:16:34.768Z,81.23
2018-08-27T04:17:00.923Z,81.33
2018-08-27T04:17:27.058Z,82
2018-08-27T04:17:53.214Z,81.71
2018-08-27T04:18:19.358Z,81.81
2018-08-27T04:18:45.478Z,81.62
2018-08-27T04:19:11.640Z,81.23
2018-08-27T04:19:37.790Z,81.46
2018-08-27T04:20:03.944Z,81.56
2018-08-27T04:20:30.120Z,81.71
2018-08-27T04:20:56.284Z,81.81
2018-08-27T04:21:22.416Z,81.71
2018-08-27T04:21:48.552Z,81.18
2018-08-27T04:22:14.710Z,81.52
2018-08-27T04:22:40.843Z,81.46
2018-08-27T04:23:07.006Z,81.43
2018-08-27T04:23:33.138Z,81.62
2018-08-27T04:23:59.340Z,81.66
2018-08-27T04:24:25.475Z,81.27
2018-08-27T04:24:51.609Z,81.13
2018-08-27T04:25:17.789Z,81.23
2018-08-27T04:25:43.933Z,81.71
2018-08-27T04:26:10.078Z,81.37
2018-08-27T04:26:36.214Z,81.13
2018-08-27T04:27:02.345Z,81.43
2018-08-27T04:27:28.477Z,81.33
2018-08-27T04:27:54.605Z,81.37
2018-08-27T04:28:20.766Z,81.52
2018-08-27T04:28:46.963Z,81.71
2018-08-27T04:29:13.027Z,81.56
2018-08-27T04:29:39.180Z,81.52
2018-08-27T04:30:05.316Z,81.33
2018-08-27T04:30:31.451Z,81.52
2018-08-27T04:30:57.577Z,82.09
2018-08-27T04:31:23.715Z,82.19
2018-08-27T04:31:49.848Z,82.38
2018-08-27T04:32:15.986Z,82.29
2018-08-27T04:32:42.118Z,82.38
2018-08-27T04:33:08.253Z,82.09
2018-08-27T04:33:34.382Z,82.38
2018-08-27T04:34:00.519Z,82.29
2018-08-27T04:34:26.649Z,83.34
2018-08-27T04:34:52.868Z,83.44
2018-08-27T04:35:18.940Z,83.34
2018-08-27T04:35:45.098Z,84.2
2018-08-27T04:36:11.226Z,84.25
2018-08-27T04:36:37.401Z,84.39
2018-08-27T04:37:03.533Z,84.2
2018-08-27T04:37:29.667Z,84.2
2018-08-27T04:37:55.806Z,84.01
2018-08-27T04:38:21.939Z,84.3
2018-08-27T04:38:48.108Z,84.53
2018-08-27T04:39:14.236Z,84.91
2018-08-27T04:39:40.371Z,84.88
2018-08-27T04:40:06.526Z,85.06
2018-08-27T04:40:32.669Z,85.54
2018-08-27T04:40:58.806Z,85.93
2018-08-27T04:41:24.937Z,85.54
2018-08-27T04:41:51.065Z,85.74
2018-08-27T04:42:17.197Z,86.12
2018-08-27T04:42:43.400Z,87.12
2018-08-27T04:43:09.461Z,87.17
2018-08-27T04:43:35.598Z,87.65
2018-08-27T04:44:01.791Z,88.13
2018-08-27T04:44:27.861Z,88.51
2018-08-27T04:44:53.994Z,87.84
2018-08-27T04:45:20.161Z,88.61
2018-08-27T04:45:46.293Z,89.09
2018-08-27T04:46:12.418Z,88.61
2018-08-27T04:46:38.606Z,89.28
2018-08-27T04:47:04.800Z,90.23
2018-08-27T04:47:30.919Z,90.23
2018-08-27T04:47:57.077Z,90.43
2018-08-27T04:48:23.258Z,89.86
2018-08-27T04:48:49.408Z,89.66
2018-08-27T04:49:15.566Z,89.76
2018-08-27T04:49:41.703Z,89.76
2018-08-27T04:50:07.859Z,90.05
2018-08-27T04:50:33.988Z,90.43
2018-08-27T04:51:00.176Z,90.72
2018-08-27T04:51:26.353Z,89.95
2018-08-27T04:51:52.509Z,90.43
2018-08-27T04:52:18.644Z,90.43
2018-08-27T04:52:44.793Z,91.1
2018-08-27T04:53:10.935Z,91.58
2018-08-27T04:53:37.087Z,91.49
2018-08-27T04:54:03.214Z,92.06
2018-08-27T04:54:29.349Z,92.15
2018-08-27T04:54:55.505Z,91.96
2018-08-27T04:55:21.659Z,91.96
2018-08-27T04:55:47.795Z,92.54
2018-08-27T04:56:13.972Z,92.01
2018-08-27T04:56:40.127Z,92.25
2018-08-27T04:57:06.265Z,92.15
2018-08-27T04:57:32.388Z,92.92
2018-08-27T04:57:58.524Z,92.82
2018-08-27T04:58:24.653Z,92.73
2018-08-27T04:58:50.790Z,92.92
2018-08-27T04:59:16.942Z,92.82
2018-08-27T04:59:43.101Z,93.02
2018-08-27T05:00:09.234Z,92.73
2018-08-27T05:00:35.366Z,92.82
2018-08-27T05:01:01.525Z,92.82
2018-08-27T05:01:27.649Z,92.82
2018-08-27T05:01:53.809Z,92.82
2018-08-27T05:02:19.964Z,92.68
2018-08-27T05:02:46.107Z,92.54
2018-08-27T05:03:12.304Z,92.44
2018-08-27T05:03:38.440Z,92.87
2018-08-27T05:04:04.597Z,93.45
2018-08-27T05:04:30.725Z,93.54
2018-08-27T05:04:56.882Z,92.97
2018-08-27T05:05:23.045Z,93.4
2018-08-27T05:05:49.181Z,93.4
2018-08-27T05:06:15.336Z,93.07
2018-08-27T05:06:41.497Z,93.16
2018-08-27T05:07:07.643Z,93.93
2018-08-27T05:07:33.806Z,93.16
2018-08-27T05:07:59.955Z,93.16
2018-08-27T05:08:26.093Z,93.07
2018-08-27T05:08:52.240Z,93.74
2018-08-27T05:09:18.375Z,94.31
2018-08-27T05:09:44.510Z,94.6
2018-08-27T05:10:10.643Z,94.69
2018-08-27T05:10:36.772Z,94.89
2018-08-27T05:11:02.917Z,94.5
2018-08-27T05:11:29.045Z,94.89
2018-08-27T05:11:55.202Z,95.56
2018-08-27T05:12:21.360Z,95.27
2018-08-27T05:12:47.576Z,95.65
2018-08-27T05:13:13.828Z,96.42
2018-08-27T05:13:39.884Z,96.89
2018-08-27T05:14:06.014Z,97.09
2018-08-27T05:14:32.149Z,97.28
2018-08-27T05:14:58.284Z,97.28
2018-08-27T05:15:24.437Z,97.28
2018-08-27T05:15:50.587Z,97.28
2018-08-27T05:16:16.724Z,97.38
2018-08-27T05:16:42.866Z,97.28
2018-08-27T05:17:09.054Z,96.89
2018-08-27T05:17:35.191Z,96.99
2018-08-27T05:18:01.346Z,96.32
2018-08-27T05:18:27.522Z,97.09
2018-08-27T05:18:53.658Z,96.89
2018-08-27T05:19:19.892Z,96.89
2018-08-27T05:19:45.950Z,96.42
2018-08-27T05:20:12.135Z,97.09
2018-08-27T05:20:38.215Z,97.28
2018-08-27T05:21:04.349Z,96.89
2018-08-27T05:21:30.479Z,97.28
2018-08-27T05:21:56.640Z,96.89
2018-08-27T05:22:22.766Z,97.28
2018-08-27T05:22:48.896Z,97.18
2018-08-27T05:23:15.030Z,97.18
2018-08-27T05:23:41.167Z,97.38
2018-08-27T05:24:07.298Z,97.28
2018-08-27T05:24:33.435Z,97.28
2018-08-27T05:24:59.566Z,97.38
2018-08-27T05:25:25.724Z,98.05
2018-08-27T05:25:51.878Z,98.33
2018-08-27T05:26:18.019Z,98.05
2018-08-27T05:26:44.180Z,98.24
2018-08-27T05:27:10.311Z,97.85
2018-08-27T05:27:36.447Z,98.43
2018-08-27T05:28:02.584Z,98.43
2018-08-27T05:28:28.740Z,99.19
2018-08-27T05:28:54.869Z,99.58
2018-08-27T05:29:21.001Z,99.67
2018-08-27T05:29:47.138Z,99.77
2018-08-27T05:30:13.272Z,99.99
2018-08-27T05:30:39.480Z,99.99
2018-08-27T05:31:05.669Z,99.99
2018-08-27T05:31:31.755Z,99.99
2018-08-27T05:31:57.888Z,99.99
2018-08-27T05:32:24.022Z,99.99
2018-08-27T05:32:50.155Z,99.99
2018-08-27T05:33:16.287Z,99.99
2018-08-27T05:33:42.419Z,99.99
2018-08-27T05:34:08.578Z,99.99
2018-08-27T05:34:34.712Z,99.99
2018-08-27T05:35:00.853Z,99.99
2018-08-27T05:35:26.979Z,99.99
2018-08-27T05:35:53.116Z,99.99
2018-08-27T05:36:19.247Z,99.99
2018-08-27T05:36:45.377Z,99.99
2018-08-27T05:37:11.510Z,99.99
2018-08-27T05:37:37.651Z,99.99